createdAt,value
2016-12-28T00:00:49.120Z,57.71
2016-12-28T00:02:00.029Z,57.53
2016-12-28T00:03:10.938Z,57.81
2016-12-28T00:04:21.920Z,57.53
2016-12-28T00:05:32.493Z,57.81
2016-12-28T00:06:43.058Z,57.53
2016-12-28T00:07:53.615Z,57.62
2016-12-28T00:09:04.524Z,57.71
2016-12-28T00:10:15.478Z,57.71
2016-12-28T00:11:26.383Z,57.71
2016-12-28T00:12:37.296Z,57.81
2016-12-28T00:13:47.857Z,57.71
2016-12-28T00:14:58.763Z,57.71
2016-12-28T00:16:09.724Z,57.81
2016-12-28T00:17:20.297Z,57.53
2016-12-28T00:18:31.206Z,57.81
2016-12-28T00:19:42.115Z,57.71
2016-12-28T00:20:53.020Z,57.81
2016-12-28T00:22:03.633Z,57.71
2016-12-28T00:23:13.851Z,57.62
2016-12-28T00:24:24.412Z,57.81
2016-12-28T00:25:35.325Z,57.81
2016-12-28T00:26:46.267Z,57.81
2016-12-28T00:27:56.887Z,57.81
2016-12-28T00:29:07.821Z,57.71
2016-12-28T00:30:18.378Z,57.53
2016-12-28T00:31:28.947Z,57.62
2016-12-28T00:32:39.528Z,57.71
2016-12-28T00:33:50.137Z,57.53
2016-12-28T00:35:01.046Z,57.62
2016-12-28T00:36:11.948Z,57.62
2016-12-28T00:37:22.509Z,57.71
2016-12-28T00:38:33.422Z,57.71
2016-12-28T00:39:44.039Z,57.71
2016-12-28T00:40:54.941Z,57.62
2016-12-28T00:42:05.506Z,57.71
2016-12-28T00:43:16.103Z,57.81
2016-12-28T00:44:26.664Z,57.9
2016-12-28T00:45:37.645Z,57.71
2016-12-28T00:46:48.550Z,57.71
2016-12-28T00:47:59.460Z,57.81
2016-12-28T00:49:10.361Z,57.81
2016-12-28T00:50:20.924Z,57.81
2016-12-28T00:51:31.892Z,57.71
2016-12-28T00:52:42.461Z,57.81
2016-12-28T00:53:53.370Z,57.62
2016-12-28T00:55:03.935Z,57.53
2016-12-28T00:56:14.844Z,57.81
2016-12-28T00:57:25.825Z,57.81
2016-12-28T00:58:36.400Z,57.71
2016-12-28T00:59:47.300Z,57.71
2016-12-28T01:00:58.201Z,57.9
2016-12-28T01:02:08.766Z,57.53
2016-12-28T01:03:19.727Z,57.81
2016-12-28T01:04:30.628Z,57.9
2016-12-28T01:05:41.545Z,57.62
2016-12-28T01:06:51.759Z,57.43
2016-12-28T01:08:02.680Z,57.53
2016-12-28T01:09:13.295Z,57.62
2016-12-28T01:10:24.194Z,57.53
2016-12-28T01:11:35.104Z,57.53
2016-12-28T01:12:45.676Z,57.53
2016-12-28T01:13:56.582Z,57.33
2016-12-28T01:15:07.539Z,57.9
2016-12-28T01:16:18.101Z,57.53
2016-12-28T01:17:29.013Z,57.53
2016-12-28T01:18:39.923Z,57.81
2016-12-28T01:19:50.488Z,57.53
2016-12-28T01:21:01.445Z,57.53
2016-12-28T01:22:12.034Z,57.53
2016-12-28T01:23:22.947Z,57.62
2016-12-28T01:24:33.861Z,57.53
2016-12-28T01:25:44.426Z,57.71
2016-12-28T01:26:55.387Z,57.43
2016-12-28T01:28:06.288Z,57.62
2016-12-28T01:29:16.525Z,57.33
2016-12-28T01:30:27.087Z,57.43
2016-12-28T01:31:37.655Z,57.33
2016-12-28T01:32:48.365Z,57.62
2016-12-28T01:33:59.278Z,57.24
2016-12-28T01:35:09.847Z,57.62
2016-12-28T01:36:20.416Z,57.62
2016-12-28T01:37:31.325Z,57.62
2016-12-28T01:38:42.315Z,57.62
2016-12-28T01:39:53.216Z,57.62
2016-12-28T01:41:03.769Z,57.43
2016-12-28T01:42:14.354Z,57.62
2016-12-28T01:43:25.256Z,57.43
2016-12-28T01:44:35.881Z,57.62
2016-12-28T01:45:46.786Z,57.81
2016-12-28T01:46:57.707Z,57.43
2016-12-28T01:48:08.308Z,57.81
2016-12-28T01:49:18.897Z,58.29
2016-12-28T01:50:29.171Z,57.9
2016-12-28T01:51:39.736Z,57.9
2016-12-28T01:52:50.640Z,58.19
2016-12-28T01:54:01.558Z,58.19
2016-12-28T01:55:12.472Z,58.1
2016-12-28T01:56:23.428Z,58.19
2016-12-28T01:57:34.341Z,58.38
2016-12-28T01:58:45.255Z,58.48
2016-12-28T01:59:55.811Z,58
2016-12-28T02:01:06.729Z,58.29
2016-12-28T02:02:17.686Z,58.1
2016-12-28T02:03:28.243Z,58.19
2016-12-28T02:04:39.148Z,58
2016-12-28T02:05:50.065Z,58
2016-12-28T02:07:00.646Z,58.1
2016-12-28T02:08:11.607Z,58.1
2016-12-28T02:09:21.824Z,58.1
2016-12-28T02:10:32.734Z,58.19
2016-12-28T02:11:43.310Z,57.9
2016-12-28T02:12:54.220Z,58
2016-12-28T02:14:05.185Z,58
2016-12-28T02:15:15.754Z,57.62
2016-12-28T02:16:25.979Z,58.29
2016-12-28T02:17:36.883Z,57.9
2016-12-28T02:18:47.452Z,57.9
2016-12-28T02:19:58.414Z,58.1
2016-12-28T02:21:09.327Z,58.1
2016-12-28T02:22:20.264Z,58.29
2016-12-28T02:23:31.178Z,58.19
2016-12-28T02:24:41.730Z,58.19
2016-12-28T02:25:52.544Z,58.29
2016-12-28T02:27:03.453Z,58.19
2016-12-28T02:28:14.022Z,58.29
2016-12-28T02:29:24.927Z,58.1
2016-12-28T02:30:35.488Z,58.1
2016-12-28T02:31:46.097Z,58.1
2016-12-28T02:32:56.658Z,58.1
2016-12-28T02:34:07.551Z,58.1
2016-12-28T02:35:18.112Z,58.1
2016-12-28T02:36:29.029Z,58.1
2016-12-28T02:37:40.002Z,57.9
2016-12-28T02:38:50.902Z,58
2016-12-28T02:40:01.463Z,58
2016-12-28T02:41:12.400Z,58
2016-12-28T02:42:23.301Z,58.1
2016-12-28T02:43:34.266Z,58.1
2016-12-28T02:44:45.171Z,58.1
2016-12-28T02:45:56.076Z,58.1
2016-12-28T02:47:06.634Z,58.19
2016-12-28T02:48:17.550Z,58.19
2016-12-28T02:49:28.267Z,58.1
2016-12-28T02:50:39.168Z,58
2016-12-28T02:51:49.737Z,58.29
2016-12-28T02:53:00.298Z,58
2016-12-28T02:54:10.867Z,58.1
2016-12-28T02:55:21.816Z,57.9
2016-12-28T02:56:32.373Z,57.9
2016-12-28T02:57:43.286Z,58.1
2016-12-28T02:58:54.195Z,58.1
2016-12-28T03:00:05.100Z,58.29
2016-12-28T03:01:16.069Z,58.19
2016-12-28T03:02:26.986Z,58.1
2016-12-28T03:03:37.896Z,58.19
2016-12-28T03:04:48.456Z,58.19
2016-12-28T03:05:59.365Z,58.1
2016-12-28T03:07:10.330Z,58
2016-12-28T03:08:20.899Z,58.19
2016-12-28T03:09:31.836Z,58
2016-12-28T03:10:42.741Z,58.19
2016-12-28T03:11:53.302Z,58.19
2016-12-28T03:13:03.915Z,58.38
2016-12-28T03:14:14.480Z,58.19
2016-12-28T03:15:25.037Z,58.29
2016-12-28T03:16:35.937Z,58.19
2016-12-28T03:17:46.163Z,58.19
2016-12-28T03:18:56.784Z,58.19
2016-12-28T03:20:07.360Z,58.38
2016-12-28T03:21:18.273Z,58.1
2016-12-28T03:22:28.831Z,58.19
2016-12-28T03:23:39.743Z,58.19
2016-12-28T03:24:50.357Z,58.19
2016-12-28T03:26:01.262Z,58.19
2016-12-28T03:27:12.167Z,58.19
2016-12-28T03:28:23.080Z,58
2016-12-28T03:29:33.637Z,58
2016-12-28T03:30:44.334Z,58
2016-12-28T03:31:55.243Z,58
2016-12-28T03:33:05.809Z,58.1
2016-12-28T03:34:16.725Z,58
2016-12-28T03:35:27.622Z,58.19
2016-12-28T03:36:38.231Z,58.1
2016-12-28T03:37:48.804Z,58.1
2016-12-28T03:38:59.378Z,58.1
2016-12-28T03:40:10.287Z,58.1
2016-12-28T03:41:20.872Z,57.9
2016-12-28T03:42:31.485Z,58.19
2016-12-28T03:43:42.394Z,58.1
2016-12-28T03:44:52.975Z,58.1
2016-12-28T03:46:03.540Z,58.1
2016-12-28T03:47:14.449Z,58
2016-12-28T03:48:25.410Z,58.19
2016-12-28T03:49:35.968Z,58.38
2016-12-28T03:50:46.873Z,58.16
2016-12-28T03:51:57.432Z,58.19
2016-12-28T03:53:08.347Z,58.26
2016-12-28T03:54:18.952Z,58.38
2016-12-28T03:55:29.522Z,58.19
2016-12-28T03:56:40.083Z,58.16
2016-12-28T03:57:50.992Z,58.38
2016-12-28T03:59:01.209Z,58.38
2016-12-28T04:00:11.826Z,58.19
2016-12-28T04:01:22.731Z,58
2016-12-28T04:02:33.281Z,58
2016-12-28T04:03:44.198Z,58.16
2016-12-28T04:04:55.111Z,58.1
2016-12-28T04:06:05.728Z,58.29
2016-12-28T04:07:16.625Z,58
2016-12-28T04:08:27.535Z,58.38
2016-12-28T04:09:38.091Z,58.1
2016-12-28T04:10:48.993Z,58
2016-12-28T04:11:59.610Z,58.19
2016-12-28T04:13:10.176Z,58.19
2016-12-28T04:14:20.748Z,58.1
2016-12-28T04:15:31.318Z,58.19
2016-12-28T04:16:42.234Z,58.19
2016-12-28T04:17:52.844Z,58.19
2016-12-28T04:19:03.753Z,58.19
2016-12-28T04:20:14.342Z,58.19
2016-12-28T04:21:24.892Z,58.1
2016-12-28T04:22:35.112Z,58
2016-12-28T04:23:46.234Z,58.16
2016-12-28T04:24:56.799Z,58.1
2016-12-28T04:26:07.708Z,58.38
2016-12-28T04:27:18.621Z,58.1
2016-12-28T04:28:29.530Z,58.29
2016-12-28T04:29:40.491Z,58.38
2016-12-28T04:30:51.056Z,58
2016-12-28T04:32:01.626Z,58.07
2016-12-28T04:33:12.219Z,58.1
2016-12-28T04:34:22.788Z,58.19
2016-12-28T04:35:33.745Z,58.29
2016-12-28T04:36:44.654Z,58.1
2016-12-28T04:37:55.567Z,58.26
2016-12-28T04:39:06.125Z,58.58
2016-12-28T04:40:17.077Z,58.19
2016-12-28T04:41:28.031Z,58.38
2016-12-28T04:42:38.596Z,58.48
2016-12-28T04:43:49.166Z,58.45
2016-12-28T04:45:00.083Z,58.48
2016-12-28T04:46:11.000Z,58.64
2016-12-28T04:47:21.961Z,58.36
2016-12-28T04:48:32.858Z,58.19
2016-12-28T04:49:43.788Z,58.54
2016-12-28T04:50:54.701Z,58.07
2016-12-28T04:52:05.602Z,58.16
2016-12-28T04:53:16.559Z,58.38
2016-12-28T04:54:27.472Z,58.16
2016-12-28T04:55:38.038Z,58.45
2016-12-28T04:56:48.602Z,57.9
2016-12-28T04:57:58.839Z,58.19
2016-12-28T04:59:09.809Z,58.16
2016-12-28T05:00:20.026Z,58.45
2016-12-28T05:01:30.943Z,58.1
2016-12-28T05:02:41.840Z,58.64
2016-12-28T05:03:52.746Z,58.16
2016-12-28T05:05:03.703Z,58.19
2016-12-28T05:06:13.920Z,58.07
2016-12-28T05:07:24.481Z,58.07
2016-12-28T05:08:35.042Z,58.29
2016-12-28T05:09:45.955Z,58.38
2016-12-28T05:10:56.916Z,58.64
2016-12-28T05:12:07.822Z,58.38
2016-12-28T05:13:18.387Z,58.64
2016-12-28T05:14:28.965Z,58.58
2016-12-28T05:15:39.866Z,58.67
2016-12-28T05:16:50.480Z,58.67
2016-12-28T05:18:01.046Z,58.29
2016-12-28T05:19:11.961Z,58.19
2016-12-28T05:20:22.865Z,58.45
2016-12-28T05:21:33.774Z,58.19
2016-12-28T05:22:44.731Z,58.64
2016-12-28T05:23:55.630Z,58.36
2016-12-28T05:25:06.562Z,58.45
2016-12-28T05:26:17.119Z,58.54
2016-12-28T05:27:27.681Z,58.54
2016-12-28T05:28:38.634Z,58.1
2016-12-28T05:29:49.548Z,58.07
2016-12-28T05:31:00.469Z,58.1
2016-12-28T05:32:11.379Z,58.36
2016-12-28T05:33:21.944Z,58.19
2016-12-28T05:34:32.553Z,58.29
2016-12-28T05:35:43.123Z,58.29
2016-12-28T05:36:53.684Z,58.54
2016-12-28T05:38:04.250Z,58.29
2016-12-28T05:39:15.159Z,58.58
2016-12-28T05:40:25.773Z,58.26
2016-12-28T05:41:36.333Z,58.26
2016-12-28T05:42:46.892Z,58.19
2016-12-28T05:43:57.468Z,58.38
2016-12-28T05:45:08.378Z,58.36
2016-12-28T05:46:18.992Z,58.29
2016-12-28T05:47:29.893Z,58.26
2016-12-28T05:48:40.810Z,58.19
2016-12-28T05:49:51.724Z,58.45
2016-12-28T05:51:02.282Z,58.36
2016-12-28T05:52:13.243Z,58.29
2016-12-28T05:53:24.153Z,58.19
2016-12-28T05:54:34.718Z,58.45
2016-12-28T05:55:45.656Z,58.45
2016-12-28T05:56:56.217Z,58.36
2016-12-28T05:58:07.170Z,58.16
2016-12-28T05:59:17.392Z,58.38
2016-12-28T06:00:27.954Z,58.48
2016-12-28T06:01:38.519Z,58.07
2016-12-28T06:02:49.096Z,58.07
2016-12-28T06:04:00.051Z,58.07
2016-12-28T06:05:10.963Z,58.16
2016-12-28T06:06:21.541Z,58.19
2016-12-28T06:07:32.446Z,58.16
2016-12-28T06:08:43.356Z,58.16
2016-12-28T06:09:54.317Z,58.26
2016-12-28T06:11:05.231Z,58.07
2016-12-28T06:12:16.144Z,58.16
2016-12-28T06:13:27.054Z,58.26
2016-12-28T06:14:37.607Z,58.36
2016-12-28T06:15:48.221Z,58.19
2016-12-28T06:16:58.794Z,58.19
2016-12-28T06:18:09.364Z,58.16
2016-12-28T06:19:20.265Z,58.26
2016-12-28T06:20:31.178Z,58.16
2016-12-28T06:21:42.160Z,58.64
2016-12-28T06:22:52.729Z,58.64
2016-12-28T06:24:03.299Z,58.36
2016-12-28T06:25:14.196Z,58.73
2016-12-28T06:26:25.106Z,58.36
2016-12-28T06:27:36.067Z,58.16
2016-12-28T06:28:46.628Z,58.64
2016-12-28T06:29:57.221Z,58.16
2016-12-28T06:31:07.795Z,57.97
2016-12-28T06:32:18.364Z,58.54
2016-12-28T06:33:29.313Z,58.16
2016-12-28T06:34:39.874Z,58.26
2016-12-28T06:35:50.780Z,58.26
2016-12-28T06:37:01.350Z,58.73
2016-12-28T06:38:12.259Z,58.54
2016-12-28T06:39:22.872Z,58.64
2016-12-28T06:40:33.785Z,58.86
2016-12-28T06:41:44.690Z,58.73
2016-12-28T06:42:55.247Z,58.73
2016-12-28T06:44:06.177Z,58.64
2016-12-28T06:45:16.893Z,58.73
2016-12-28T06:46:27.463Z,58.73
2016-12-28T06:47:38.031Z,58.73
2016-12-28T06:48:48.605Z,58.76
2016-12-28T06:49:59.510Z,58.73
2016-12-28T06:51:10.459Z,58.76
2016-12-28T06:52:21.028Z,58.45
2016-12-28T06:53:31.934Z,58.45
2016-12-28T06:54:42.839Z,58.67
2016-12-28T06:55:53.399Z,58.83
2016-12-28T06:57:04.361Z,58.83
2016-12-28T06:58:15.274Z,58.54
2016-12-28T06:59:25.835Z,58.54
2016-12-28T07:00:36.744Z,58.73
2016-12-28T07:01:47.313Z,58.64
2016-12-28T07:02:57.926Z,58.64
2016-12-28T07:04:08.496Z,58.54
2016-12-28T07:05:19.405Z,58.54
2016-12-28T07:06:30.314Z,58.83
2016-12-28T07:07:41.251Z,58.67
2016-12-28T07:08:51.868Z,58.64
2016-12-28T07:10:02.781Z,58.64
2016-12-28T07:11:13.683Z,58.45
2016-12-28T07:12:24.248Z,58.45
2016-12-28T07:13:35.165Z,58.64
2016-12-28T07:14:46.130Z,58.45
2016-12-28T07:15:56.343Z,58.54
2016-12-28T07:17:07.244Z,58.45
2016-12-28T07:18:17.814Z,58.67
2016-12-28T07:19:28.403Z,58.45
2016-12-28T07:20:39.359Z,58.45
2016-12-28T07:21:49.940Z,58.45
2016-12-28T07:23:00.495Z,58.64
2016-12-28T07:24:11.411Z,58.38
2016-12-28T07:25:21.968Z,58.45
2016-12-28T07:26:32.605Z,58.45
2016-12-28T07:27:43.175Z,58.45
2016-12-28T07:28:54.079Z,58.45
2016-12-28T07:30:04.986Z,58.54
2016-12-28T07:31:15.546Z,58.36
2016-12-28T07:32:26.511Z,58.45
2016-12-28T07:33:37.424Z,58.45
2016-12-28T07:34:47.982Z,58.64
2016-12-28T07:35:58.535Z,58.45
2016-12-28T07:37:09.096Z,58.64
2016-12-28T07:38:19.357Z,58.45
2016-12-28T07:39:30.262Z,58.45
2016-12-28T07:40:41.175Z,58.45
2016-12-28T07:41:52.089Z,58.36
2016-12-28T07:43:02.990Z,58.58
2016-12-28T07:44:13.611Z,58.29
2016-12-28T07:45:23.820Z,58.54
2016-12-28T07:46:34.377Z,58.64
2016-12-28T07:47:44.935Z,58.54
2016-12-28T07:48:55.499Z,58.45
2016-12-28T07:50:06.108Z,58.45
2016-12-28T07:51:16.681Z,58.67
2016-12-28T07:52:27.251Z,58.54
2016-12-28T07:53:37.815Z,58.48
2016-12-28T07:54:48.381Z,58.45
2016-12-28T07:55:59.349Z,58.45
2016-12-28T07:57:10.262Z,58.64
2016-12-28T07:58:21.171Z,58.58
2016-12-28T07:59:31.732Z,58.45
2016-12-28T08:00:42.293Z,58.54
2016-12-28T08:01:53.247Z,58.36
2016-12-28T08:03:04.151Z,58.54
2016-12-28T08:04:15.060Z,58.45
2016-12-28T08:05:25.633Z,58.67
2016-12-28T08:06:36.539Z,58.45
2016-12-28T08:07:47.155Z,58.54
2016-12-28T08:08:57.724Z,58.64
2016-12-28T08:10:08.285Z,58.58
2016-12-28T08:11:19.226Z,58.58
2016-12-28T08:12:29.792Z,58.73
2016-12-28T08:13:40.753Z,58.58
2016-12-28T08:14:51.657Z,58.76
2016-12-28T08:16:02.215Z,58.73
2016-12-28T08:17:12.783Z,58.76
2016-12-28T08:18:23.005Z,58.83
2016-12-28T08:19:33.993Z,58.73
2016-12-28T08:20:44.551Z,58.26
2016-12-28T08:21:55.464Z,58.73
2016-12-28T08:23:06.372Z,58.38
2016-12-28T08:24:16.946Z,58.29
2016-12-28T08:25:27.590Z,58.67
2016-12-28T08:26:38.155Z,58.19
2016-12-28T08:27:48.712Z,58.19
2016-12-28T08:28:59.273Z,58.1
2016-12-28T08:30:09.838Z,58.29
2016-12-28T08:31:20.446Z,58.48
2016-12-28T08:32:31.361Z,58.16
2016-12-28T08:33:41.948Z,58.07
2016-12-28T08:34:52.852Z,58.19
2016-12-28T08:36:03.422Z,58.38
2016-12-28T08:37:14.035Z,58.19
2016-12-28T08:38:24.940Z,58.1
2016-12-28T08:39:35.845Z,58.58
2016-12-28T08:40:46.445Z,58.29
2016-12-28T08:41:57.351Z,58.19
2016-12-28T08:43:08.316Z,58.19
2016-12-28T08:44:19.220Z,58.29
2016-12-28T08:45:29.777Z,58.19
2016-12-28T08:46:40.367Z,58.19
2016-12-28T08:47:51.311Z,58.1
2016-12-28T08:49:02.268Z,58
2016-12-28T08:50:13.177Z,58.29
2016-12-28T08:51:24.090Z,58.1
2016-12-28T08:52:34.991Z,58.1
2016-12-28T08:53:45.552Z,58
2016-12-28T08:54:56.169Z,58.19
2016-12-28T08:56:07.069Z,57.9
2016-12-28T08:57:17.975Z,57.9
2016-12-28T08:58:28.539Z,57.53
2016-12-28T08:59:39.104Z,57.71
2016-12-28T09:00:49.714Z,57.43
2016-12-28T09:02:00.286Z,57.71
2016-12-28T09:03:10.859Z,57.43
2016-12-28T09:04:21.764Z,57.62
2016-12-28T09:05:32.668Z,57.43
2016-12-28T09:06:43.293Z,57.43
2016-12-28T09:07:54.195Z,57.24
2016-12-28T09:09:05.103Z,57.43
2016-12-28T09:10:15.664Z,57.43
2016-12-28T09:11:26.563Z,57.43
2016-12-28T09:12:37.674Z,57.62
2016-12-28T09:13:48.591Z,57.43
2016-12-28T09:14:59.160Z,57.43
2016-12-28T09:16:10.069Z,57.43
2016-12-28T09:17:20.630Z,57.33
2016-12-28T09:18:31.591Z,57.33
2016-12-28T09:19:41.812Z,57.71
2016-12-28T09:20:52.717Z,57.33
2016-12-28T09:22:03.281Z,57.33
2016-12-28T09:23:13.855Z,57.71
2016-12-28T09:24:24.467Z,57.43
2016-12-28T09:25:35.053Z,57.33
2016-12-28T09:26:45.966Z,57.33
2016-12-28T09:27:56.187Z,57.62
2016-12-28T09:29:07.119Z,57.24
2016-12-28T09:30:18.081Z,57.62
2016-12-28T09:31:29.001Z,57.62
2016-12-28T09:32:39.938Z,57.43
2016-12-28T09:33:50.856Z,57.62
2016-12-28T09:35:01.765Z,57.62
2016-12-28T09:36:12.374Z,57.62
2016-12-28T09:37:23.295Z,57.53
2016-12-28T09:38:33.863Z,57.62
2016-12-28T09:39:44.772Z,57.53
2016-12-28T09:40:55.682Z,57.53
2016-12-28T09:42:06.331Z,57.9
2016-12-28T09:43:16.892Z,57.9
2016-12-28T09:44:27.460Z,57.71
2016-12-28T09:45:38.021Z,57.71
2016-12-28T09:46:48.606Z,57.71
2016-12-28T09:47:59.215Z,57.71
2016-12-28T09:49:10.121Z,57.62
2016-12-28T09:50:21.026Z,57.71
2016-12-28T09:51:31.578Z,57.71
2016-12-28T09:52:42.176Z,57.71
2016-12-28T09:53:52.789Z,57.33
2016-12-28T09:55:03.002Z,57.24
2016-12-28T09:56:13.568Z,57.24
2016-12-28T09:57:24.476Z,57.24
2016-12-28T09:58:35.386Z,57.53
2016-12-28T09:59:46.347Z,57.62
2016-12-28T10:00:56.940Z,57.53
2016-12-28T10:02:07.877Z,57.53
2016-12-28T10:03:18.786Z,57.43
2016-12-28T10:04:29.356Z,57.71
2016-12-28T10:05:39.969Z,57.62
2016-12-28T10:06:50.534Z,57.71
2016-12-28T10:08:01.440Z,57.81
2016-12-28T10:09:12.353Z,57.81
2016-12-28T10:10:23.266Z,57.62
2016-12-28T10:11:33.883Z,57.43
2016-12-28T10:12:44.452Z,57.43
2016-12-28T10:13:55.025Z,57.33
2016-12-28T10:15:05.587Z,57.43
2016-12-28T10:16:16.492Z,57.14
2016-12-28T10:17:27.133Z,57.14
2016-12-28T10:18:37.699Z,57.43
2016-12-28T10:19:48.596Z,57.43
2016-12-28T10:20:59.501Z,57.24
2016-12-28T10:22:10.406Z,57.33
2016-12-28T10:23:21.011Z,57.43
2016-12-28T10:24:31.925Z,57.33
2016-12-28T10:25:42.826Z,57.33
2016-12-28T10:26:53.747Z,56.76
2016-12-28T10:28:04.664Z,56.95
2016-12-28T10:29:15.631Z,56.95
2016-12-28T10:30:26.199Z,56.85
2016-12-28T10:31:36.772Z,57.14
2016-12-28T10:32:47.329Z,57.04
2016-12-28T10:33:57.891Z,56.95
2016-12-28T10:35:08.563Z,57.14
2016-12-28T10:36:19.501Z,56.85
2016-12-28T10:37:30.066Z,56.95
2016-12-28T10:38:40.975Z,56.95
2016-12-28T10:39:51.892Z,56.98
2016-12-28T10:41:02.851Z,56.85
2016-12-28T10:42:13.771Z,56.67
2016-12-28T10:43:24.332Z,57.04
2016-12-28T10:44:35.241Z,56.95
2016-12-28T10:45:46.146Z,56.95
2016-12-28T10:46:56.755Z,56.98
2016-12-28T10:48:07.685Z,57.07
2016-12-28T10:49:18.590Z,56.47
2016-12-28T10:50:29.151Z,56.69
2016-12-28T10:51:40.053Z,56.47
2016-12-28T10:52:51.011Z,56.85
2016-12-28T10:54:01.569Z,56.6
2016-12-28T10:55:12.141Z,56.5
2016-12-28T10:56:22.698Z,56.69
2016-12-28T10:57:33.607Z,56.5
2016-12-28T10:58:45.417Z,56.6
2016-12-28T10:59:56.326Z,56.79
2016-12-28T11:01:06.539Z,56.69
2016-12-28T11:02:17.108Z,56.88
2016-12-28T11:03:28.021Z,56.88
2016-12-28T11:04:38.635Z,56.79
2016-12-28T11:05:49.208Z,56.98
2016-12-28T11:06:59.778Z,56.79
2016-12-28T11:08:10.684Z,56.98
2016-12-28T11:09:21.592Z,56.79
2016-12-28T11:10:32.201Z,56.5
2016-12-28T11:11:43.127Z,56.79
2016-12-28T11:12:53.680Z,56.31
2016-12-28T11:14:04.589Z,56.5
2016-12-28T11:15:15.154Z,56.6
2016-12-28T11:16:25.779Z,56.4
2016-12-28T11:17:36.689Z,56.4
2016-12-28T11:18:47.594Z,56.4
2016-12-28T11:19:58.507Z,56.4
2016-12-28T11:21:09.065Z,56.4
2016-12-28T11:22:20.031Z,56.31
2016-12-28T11:23:30.940Z,56.12
2016-12-28T11:24:41.850Z,56.5
2016-12-28T11:25:52.416Z,56.6
2016-12-28T11:27:03.001Z,56.4
2016-12-28T11:28:13.611Z,56.4
2016-12-28T11:29:24.521Z,56.21
2016-12-28T11:30:35.434Z,56.4
2016-12-28T11:31:45.996Z,56.31
2016-12-28T11:32:56.565Z,56.4
2016-12-28T11:34:07.175Z,56.21
2016-12-28T11:35:17.393Z,56.21
2016-12-28T11:36:28.302Z,56.4
2016-12-28T11:37:38.879Z,56.4
2016-12-28T11:38:49.826Z,56.69
2016-12-28T11:40:00.443Z,56.69
2016-12-28T11:41:11.040Z,56.31
2016-12-28T11:42:21.607Z,56.6
2016-12-28T11:43:32.524Z,56.6
2016-12-28T11:44:43.094Z,56.31
2016-12-28T11:45:54.059Z,56.5
2016-12-28T11:47:04.965Z,56.5
2016-12-28T11:48:15.526Z,56.21
2016-12-28T11:49:26.428Z,56.02
2016-12-28T11:50:37.341Z,55.93
2016-12-28T11:51:48.297Z,55.93
2016-12-28T11:52:58.904Z,56.4
2016-12-28T11:54:10.230Z,55.93
2016-12-28T11:55:21.552Z,56.21
2016-12-28T11:56:32.456Z,56.21
2016-12-28T11:57:43.403Z,56.12
2016-12-28T11:58:54.736Z,56.12
2016-12-28T12:00:05.625Z,55.74
2016-12-28T12:01:16.527Z,55.74
2016-12-28T12:02:27.420Z,55.93
2016-12-28T12:03:38.390Z,55.45
2016-12-28T12:04:49.709Z,55.74
2016-12-28T12:06:01.041Z,55.93
2016-12-28T12:07:12.366Z,56.02
2016-12-28T12:08:23.256Z,55.83
2016-12-28T12:09:34.201Z,55.93
2016-12-28T12:10:45.519Z,55.45
2016-12-28T12:11:56.416Z,55.45
2016-12-28T12:13:07.945Z,56.02
2016-12-28T12:14:19.271Z,56.02
2016-12-28T12:15:30.216Z,55.93
2016-12-28T12:16:41.530Z,55.64
2016-12-28T12:17:52.875Z,55.93
2016-12-28T12:19:04.196Z,55.93
2016-12-28T12:20:15.126Z,56.02
2016-12-28T12:21:26.075Z,55.93
2016-12-28T12:22:36.973Z,55.93
2016-12-28T12:23:47.862Z,55.54
2016-12-28T12:24:58.756Z,55.64
2016-12-28T12:26:10.073Z,55.54
2016-12-28T12:27:21.063Z,56.02
2016-12-28T12:28:32.384Z,55.64
2016-12-28T12:29:43.277Z,55.54
2016-12-28T12:30:54.594Z,55.74
2016-12-28T12:32:05.492Z,55.93
2016-12-28T12:33:16.434Z,55.93
2016-12-28T12:34:27.759Z,55.64
2016-12-28T12:35:39.088Z,55.64
2016-12-28T12:36:50.415Z,55.93
2016-12-28T12:38:01.311Z,55.93
2016-12-28T12:39:12.688Z,55.54
2016-12-28T12:40:23.582Z,56.02
2016-12-28T12:41:34.123Z,55.64
2016-12-28T12:42:45.021Z,55.93
2016-12-28T12:43:56.603Z,56.02
2016-12-28T12:45:07.147Z,55.64
2016-12-28T12:46:18.041Z,56.12
2016-12-28T12:47:28.946Z,56.12
2016-12-28T12:48:40.312Z,55.74
2016-12-28T12:49:51.217Z,56.12
2016-12-28T12:51:02.167Z,55.64
2016-12-28T12:52:13.064Z,55.83
2016-12-28T12:53:24.070Z,55.93
2016-12-28T12:54:34.535Z,55.93
2016-12-28T12:55:45.860Z,56.12
2016-12-28T12:56:57.774Z,56.02
2016-12-28T12:58:09.107Z,56.21
2016-12-28T12:59:20.432Z,56.12
2016-12-28T13:00:31.326Z,56.31
2016-12-28T13:01:42.648Z,56.12
2016-12-28T13:02:54.021Z,56.31
2016-12-28T13:04:04.914Z,55.93
2016-12-28T13:05:15.196Z,56.5
2016-12-28T13:06:26.093Z,56.5
2016-12-28T13:07:36.995Z,56.12
2016-12-28T13:08:48.367Z,56.6
2016-12-28T13:09:59.257Z,56.69
2016-12-28T13:11:10.150Z,56.5
2016-12-28T13:12:21.043Z,56.4
2016-12-28T13:13:31.940Z,56.31
2016-12-28T13:14:42.934Z,56.31
2016-12-28T13:15:54.254Z,56.4
2016-12-28T13:17:05.583Z,56.4
2016-12-28T13:18:15.653Z,56.5
2016-12-28T13:19:26.550Z,56.21
2016-12-28T13:20:37.495Z,56.21
2016-12-28T13:21:48.820Z,56.4
2016-12-28T13:22:59.717Z,56.5
2016-12-28T13:24:10.615Z,56.4
2016-12-28T13:25:21.932Z,56.5
2016-12-28T13:26:32.881Z,56.31
2016-12-28T13:27:44.211Z,56.4
2016-12-28T13:28:55.107Z,56.31
2016-12-28T13:30:06.001Z,56.4
2016-12-28T13:31:16.898Z,56.4
2016-12-28T13:32:28.283Z,56.5
2016-12-28T13:33:39.620Z,56.5
2016-12-28T13:34:50.086Z,56.12
2016-12-28T13:36:00.985Z,56.31
2016-12-28T13:37:12.312Z,56.21
2016-12-28T13:38:23.249Z,56.31
2016-12-28T13:39:34.570Z,56.12
2016-12-28T13:40:45.904Z,56.4
2016-12-28T13:41:57.233Z,56.4
2016-12-28T13:43:08.138Z,56.4
2016-12-28T13:44:19.083Z,56.31
2016-12-28T13:45:30.404Z,56.31
2016-12-28T13:46:41.305Z,56.4
2016-12-28T13:47:52.658Z,56.4
2016-12-28T13:49:03.552Z,56.4
2016-12-28T13:50:14.924Z,56.21
2016-12-28T13:51:25.390Z,56.4
2016-12-28T13:52:36.291Z,56.4
2016-12-28T13:53:47.616Z,56.02
2016-12-28T13:54:58.943Z,56.4
2016-12-28T13:56:09.899Z,56.09
2016-12-28T13:57:20.799Z,56.28
2016-12-28T13:58:32.115Z,56.38
2016-12-28T13:59:43.010Z,56.4
2016-12-28T14:00:54.335Z,56.28
2016-12-28T14:02:04.852Z,56.88
2016-12-28T14:03:15.773Z,56.57
2016-12-28T14:04:26.674Z,56.76
2016-12-28T14:05:37.576Z,56.67
2016-12-28T14:06:48.889Z,56.76
2016-12-28T14:07:59.410Z,56.47
2016-12-28T14:09:10.730Z,56.76
2016-12-28T14:10:21.628Z,56.76
2016-12-28T14:11:32.521Z,56.47
2016-12-28T14:12:43.854Z,56.85
2016-12-28T14:13:55.223Z,56.95
2016-12-28T14:15:06.125Z,57.04
2016-12-28T14:16:17.029Z,56.95
2016-12-28T14:17:27.919Z,56.85
2016-12-28T14:18:38.820Z,56.85
2016-12-28T14:19:49.773Z,56.76
2016-12-28T14:21:01.094Z,56.85
2016-12-28T14:22:11.979Z,56.57
2016-12-28T14:23:23.300Z,56.85
2016-12-28T14:24:34.212Z,56.85
2016-12-28T14:25:45.590Z,56.76
2016-12-28T14:26:56.496Z,56.67
2016-12-28T14:28:07.416Z,56.57
2016-12-28T14:29:18.314Z,56.95
2016-12-28T14:30:29.635Z,56.95
2016-12-28T14:31:41.007Z,56.47
2016-12-28T14:32:52.325Z,56.67
2016-12-28T14:34:03.218Z,56.57
2016-12-28T14:35:14.539Z,56.57
2016-12-28T14:36:25.857Z,56.57
2016-12-28T14:37:37.229Z,56.67
2016-12-28T14:38:48.130Z,56.47
2016-12-28T14:39:59.443Z,56.67
2016-12-28T14:41:10.336Z,56.57
2016-12-28T14:42:21.661Z,56.57
2016-12-28T14:43:33.039Z,57.04
2016-12-28T14:44:44.371Z,56.57
2016-12-28T14:45:55.285Z,56.85
2016-12-28T14:47:06.614Z,56.57
2016-12-28T14:48:17.931Z,56.85
2016-12-28T14:49:29.028Z,57.04
2016-12-28T14:50:39.925Z,56.76
2016-12-28T14:51:51.242Z,57.14
2016-12-28T14:53:02.143Z,56.57
2016-12-28T14:54:13.040Z,56.85
2016-12-28T14:55:23.982Z,56.85
2016-12-28T14:56:34.879Z,56.67
2016-12-28T14:57:45.763Z,56.95
2016-12-28T14:58:57.089Z,57.04
2016-12-28T15:00:07.989Z,56.95
2016-12-28T15:01:19.355Z,57.04
2016-12-28T15:02:30.256Z,56.95
2016-12-28T15:03:41.157Z,57.04
2016-12-28T15:04:52.486Z,57.04
2016-12-28T15:06:03.803Z,56.95
2016-12-28T15:07:14.328Z,56.95
2016-12-28T15:08:25.661Z,56.95
2016-12-28T15:09:36.986Z,56.95
2016-12-28T15:10:47.871Z,57.14
2016-12-28T15:11:59.201Z,56.95
2016-12-28T15:13:10.577Z,56.95
2016-12-28T15:14:21.906Z,57.14
2016-12-28T15:15:33.240Z,56.76
2016-12-28T15:16:44.553Z,57.14
2016-12-28T15:17:55.446Z,56.76
2016-12-28T15:19:06.827Z,57.43
2016-12-28T15:20:18.156Z,57.24